Airfield :
LOGIN :

Register | Disclaimer

   EN    FR    IT 

 










Legend :    VFR   Marginal VFR   IFR   Intensive IFR   Very Intensive IFR
Visi :
Ceiling :
>= 8 km
>= 3000ft
5 to 8 km
1000 to 3000 ft
1500m to 5 km
500 to 1000 ft
800 to 1500m
200 to 500 ft
< 800m
< 200 ft
Symbols :   Thunderstorms  Fog  Heavy snow  Heavy precipitations  Wind > 20 kt
SIGMETs :     Misc.  Thunderstorms  Icing  Turbulence  Mountain Waves  Volcanic Ashes






- Airport Elevation : 36 ft
- IATA code : LTQ


LFAT - Le Touquet

CURRENT METAR :
  • 252330Z AUTO 32026G36KT 9999 BKN036 BKN045 12/05 Q1006

EXPIRED METARs :
  • 252300Z AUTO 32026G36KT 9999 BKN038 BKN044 12/05 Q1006
  • 252230Z AUTO 32028G41KT 9999 BKN039 BKN048 12/05 Q1006
  • 252200Z AUTO 32027KT 9999 BKN039 BKN170 13/05 Q1006
  • 252130Z AUTO 31027G37KT 9999 FEW041 SCT049 13/05 Q1006
  • 252100Z AUTO 31024G36KT 280V340 9999 BKN048 OVC170 13/05 Q1006
  • 252030Z AUTO 31023KT 280V340 9999 SCT048 SCT056 OVC170 13/04 Q1006

TAF TAF LFAT
Valid from the 25 at 15:00 until the 26 at 00:00 UTC


251400Z 2515/2524 33023G35KT 9999 SCT015 BKN030
ATIS : +33 3 21 06 62 84



MET'MAP, your aeronautical weather chart ! - Copyright ORBIFLY December 2007 - Disclaimer

ORBIFLY MET'MAP TEAM :

Programming & Development : Alexandra Zaïnal
Concept & original design : Baudouin d'Aumeries
Assistance for programming : Marc-Olivier Méhu
Technical & hardware support : Manuel Goepfert

Contact : metmap@orbifly.com




SOURCES & CREDITS :

   NOAA